sensor_id;sensor_type;location;lat;lon;timestamp;temperature;humidity
64858;SHT30;51335;51.148;6.950;2023-06-22T00:00:23;21.89;71.28
64858;SHT30;51335;51.148;6.950;2023-06-22T00:00:53;21.93;71.04
64858;SHT30;51335;51.148;6.950;2023-06-22T00:01:24;21.95;70.91
64858;SHT30;51335;51.148;6.950;2023-06-22T00:01:54;21.92;70.99
64858;SHT30;51335;51.148;6.950;2023-06-22T00:02:24;21.93;70.95
64858;SHT30;51335;51.148;6.950;2023-06-22T00:02:54;21.91;70.96
64858;SHT30;51335;51.148;6.950;2023-06-22T00:03:25;21.89;70.94
64858;SHT30;51335;51.148;6.950;2023-06-22T00:03:55;21.92;70.96
64858;SHT30;51335;51.148;6.950;2023-06-22T00:04:26;21.91;70.84
64858;SHT30;51335;51.148;6.950;2023-06-22T00:04:57;21.85;70.96
64858;SHT30;51335;51.148;6.950;2023-06-22T00:05:27;21.83;71.02
64858;SHT30;51335;51.148;6.950;2023-06-22T00:05:57;21.79;71.10
64858;SHT30;51335;51.148;6.950;2023-06-22T00:06:27;21.82;71.17
64858;SHT30;51335;51.148;6.950;2023-06-22T00:06:58;21.81;71.28
64858;SHT30;51335;51.148;6.950;2023-06-22T00:07:28;21.77;71.33
64858;SHT30;51335;51.148;6.950;2023-06-22T00:08:02;21.75;71.46
64858;SHT30;51335;51.148;6.950;2023-06-22T00:08:33;21.72;71.39
64858;SHT30;51335;51.148;6.950;2023-06-22T00:09:03;21.74;71.43
64858;SHT30;51335;51.148;6.950;2023-06-22T00:09:34;21.72;71.40
64858;SHT30;51335;51.148;6.950;2023-06-22T00:10:04;21.77;71.31
64858;SHT30;51335;51.148;6.950;2023-06-22T00:10:35;21.86;70.96
64858;SHT30;51335;51.148;6.950;2023-06-22T00:11:05;21.82;70.89
64858;SHT30;51335;51.148;6.950;2023-06-22T00:11:36;21.89;70.73
64858;SHT30;51335;51.148;6.950;2023-06-22T00:12:06;21.93;70.63
64858;SHT30;51335;51.148;6.950;2023-06-22T00:12:37;21.89;70.73
64858;SHT30;51335;51.148;6.950;2023-06-22T00:13:08;21.88;70.80
64858;SHT30;51335;51.148;6.950;2023-06-22T00:13:39;21.83;70.95
64858;SHT30;51335;51.148;6.950;2023-06-22T00:14:09;21.79;71.05
64858;SHT30;51335;51.148;6.950;2023-06-22T00:14:40;21.74;71.16
64858;SHT30;51335;51.148;6.950;2023-06-22T00:15:10;21.81;71.13
64858;SHT30;51335;51.148;6.950;2023-06-22T00:15:41;21.75;71.12
64858;SHT30;51335;51.148;6.950;2023-06-22T00:16:11;21.77;71.18
64858;SHT30;51335;51.148;6.950;2023-06-22T00:16:41;21.78;71.04
64858;SHT30;51335;51.148;6.950;2023-06-22T00:17:11;21.75;70.94
64858;SHT30;51335;51.148;6.950;2023-06-22T00:17:42;21.69;70.94
64858;SHT30;51335;51.148;6.950;2023-06-22T00:18:12;21.69;71.08
64858;SHT30;51335;51.148;6.950;2023-06-22T00:18:42;21.71;71.03
64858;SHT30;51335;51.148;6.950;2023-06-22T00:19:12;21.66;71.07
64858;SHT30;51335;51.148;6.950;2023-06-22T00:19:43;21.65;71.19
64858;SHT30;51335;51.148;6.950;2023-06-22T00:20:13;21.65;71.30
64858;SHT30;51335;51.148;6.950;2023-06-22T00:20:43;21.63;71.32
64858;SHT30;51335;51.148;6.950;2023-06-22T00:21:13;21.65;71.43
64858;SHT30;51335;51.148;6.950;2023-06-22T00:21:44;21.61;71.36
64858;SHT30;51335;51.148;6.950;2023-06-22T00:22:14;21.62;71.18
64858;SHT30;51335;51.148;6.950;2023-06-22T00:22:44;21.75;71.20
64858;SHT30;51335;51.148;6.950;2023-06-22T00:23:14;21.82;70.82
64858;SHT30;51335;51.148;6.950;2023-06-22T00:23:45;21.89;70.68
64858;SHT30;51335;51.148;6.950;2023-06-22T00:24:15;21.89;70.58
64858;SHT30;51335;51.148;6.950;2023-06-22T00:24:45;21.95;70.58
64858;SHT30;51335;51.148;6.950;2023-06-22T00:25:15;21.99;70.46
64858;SHT30;51335;51.148;6.950;2023-06-22T00:25:46;21.92;70.46
64858;SHT30;51335;51.148;6.950;2023-06-22T00:26:17;21.98;70.44
64858;SHT30;51335;51.148;6.950;2023-06-22T00:26:48;22.00;70.40
64858;SHT30;51335;51.148;6.950;2023-06-22T00:27:18;22.02;70.24
64858;SHT30;51335;51.148;6.950;2023-06-22T00:27:49;21.99;70.20
64858;SHT30;51335;51.148;6.950;2023-06-22T00:28:19;21.98;70.42
64858;SHT30;51335;51.148;6.950;2023-06-22T00:28:50;21.95;70.35
64858;SHT30;51335;51.148;6.950;2023-06-22T00:29:20;21.93;70.47
64858;SHT30;51335;51.148;6.950;2023-06-22T00:29:50;21.91;70.52
64858;SHT30;51335;51.148;6.950;2023-06-22T00:30:20;21.93;70.51
64858;SHT30;51335;51.148;6.950;2023-06-22T00:30:51;21.89;70.59
64858;SHT30;51335;51.148;6.950;2023-06-22T00:31:21;21.85;70.68
64858;SHT30;51335;51.148;6.950;2023-06-22T00:31:51;21.79;70.82
64858;SHT30;51335;51.148;6.950;2023-06-22T00:32:22;21.78;70.88
64858;SHT30;51335;51.148;6.950;2023-06-22T00:32:52;21.75;70.92
64858;SHT30;51335;51.148;6.950;2023-06-22T00:33:22;21.71;70.89
64858;SHT30;51335;51.148;6.950;2023-06-22T00:33:52;21.71;71.07
64858;SHT30;51335;51.148;6.950;2023-06-22T00:34:23;21.71;71.06
64858;SHT30;51335;51.148;6.950;2023-06-22T00:34:53;21.69;70.95
64858;SHT30;51335;51.148;6.950;2023-06-22T00:35:23;21.66;71.19
64858;SHT30;51335;51.148;6.950;2023-06-22T00:35:54;21.72;71.39
64858;SHT30;51335;51.148;6.950;2023-06-22T00:36:24;21.68;71.27
64858;SHT30;51335;51.148;6.950;2023-06-22T00:36:54;21.69;71.39
64858;SHT30;51335;51.148;6.950;2023-06-22T00:37:24;21.66;71.22
64858;SHT30;51335;51.148;6.950;2023-06-22T00:37:56;21.68;71.05
64858;SHT30;51335;51.148;6.950;2023-06-22T00:38:26;21.71;71.02
64858;SHT30;51335;51.148;6.950;2023-06-22T00:38:56;21.69;71.13
64858;SHT30;51335;51.148;6.950;2023-06-22T00:39:27;21.66;71.09
64858;SHT30;51335;51.148;6.950;2023-06-22T00:39:57;21.66;70.83
64858;SHT30;51335;51.148;6.950;2023-06-22T00:40:28;21.72;70.65
64858;SHT30;51335;51.148;6.950;2023-06-22T00:40:58;21.71;70.54
64858;SHT30;51335;51.148;6.950;2023-06-22T00:41:29;21.75;70.71
64858;SHT30;51335;51.148;6.950;2023-06-22T00:41:59;21.75;70.85
64858;SHT30;51335;51.148;6.950;2023-06-22T00:42:29;21.72;71.04
64858;SHT30;51335;51.148;6.950;2023-06-22T00:43:00;21.74;71.06
64858;SHT30;51335;51.148;6.950;2023-06-22T00:43:30;21.71;70.83
64858;SHT30;51335;51.148;6.950;2023-06-22T00:44:00;21.71;70.68
64858;SHT30;51335;51.148;6.950;2023-06-22T00:44:30;21.71;71.06
64858;SHT30;51335;51.148;6.950;2023-06-22T00:45:01;21.77;71.26
64858;SHT30;51335;51.148;6.950;2023-06-22T00:45:31;21.79;71.36
64858;SHT30;51335;51.148;6.950;2023-06-22T00:46:01;21.82;71.49
64858;SHT30;51335;51.148;6.950;2023-06-22T00:46:32;21.83;71.27
64858;SHT30;51335;51.148;6.950;2023-06-22T00:47:03;21.81;71.41
64858;SHT30;51335;51.148;6.950;2023-06-22T00:47:34;21.82;71.15
64858;SHT30;51335;51.148;6.950;2023-06-22T00:48:06;21.74;70.81
64858;SHT30;51335;51.148;6.950;2023-06-22T00:48:38;21.74;70.93
64858;SHT30;51335;51.148;6.950;2023-06-22T00:49:08;21.72;70.76
64858;SHT30;51335;51.148;6.950;2023-06-22T00:49:39;21.78;70.82
64858;SHT30;51335;51.148;6.950;2023-06-22T00:50:18;21.77;70.49
64858;SHT30;51335;51.148;6.950;2023-06-22T00:50:49;21.78;70.20
64858;SHT30;51335;51.148;6.950;2023-06-22T00:51:20;21.78;70.46
64858;SHT30;51335;51.148;6.950;2023-06-22T00:51:50;21.75;70.72
64858;SHT30;51335;51.148;6.950;2023-06-22T00:52:22;21.78;70.74
64858;SHT30;51335;51.148;6.950;2023-06-22T00:52:57;21.77;70.75
64858;SHT30;51335;51.148;6.950;2023-06-22T00:53:28;21.79;70.89
64858;SHT30;51335;51.148;6.950;2023-06-22T00:53:59;21.77;70.69
64858;SHT30;51335;51.148;6.950;2023-06-22T00:54:29;21.77;70.72
64858;SHT30;51335;51.148;6.950;2023-06-22T00:55:01;21.72;70.85
64858;SHT30;51335;51.148;6.950;2023-06-22T00:55:32;21.71;70.84
64858;SHT30;51335;51.148;6.950;2023-06-22T00:56:03;21.68;70.58
64858;SHT30;51335;51.148;6.950;2023-06-22T00:56:33;21.65;70.63
64858;SHT30;51335;51.148;6.950;2023-06-22T00:57:03;21.68;70.49
64858;SHT30;51335;51.148;6.950;2023-06-22T00:57:34;21.72;70.49
64858;SHT30;51335;51.148;6.950;2023-06-22T00:58:06;21.79;70.45
64858;SHT30;51335;51.148;6.950;2023-06-22T00:58:36;21.77;70.31
64858;SHT30;51335;51.148;6.950;2023-06-22T00:59:07;21.74;70.36
64858;SHT30;51335;51.148;6.950;2023-06-22T00:59:37;21.68;70.42
64858;SHT30;51335;51.148;6.950;2023-06-22T01:00:08;21.66;70.56
64858;SHT30;51335;51.148;6.950;2023-06-22T01:00:40;21.68;70.38
64858;SHT30;51335;51.148;6.950;2023-06-22T01:01:10;21.69;70.44
64858;SHT30;51335;51.148;6.950;2023-06-22T01:01:40;21.69;70.27
64858;SHT30;51335;51.148;6.950;2023-06-22T01:02:11;21.78;70.31
64858;SHT30;51335;51.148;6.950;2023-06-22T01:02:42;21.89;70.00
64858;SHT30;51335;51.148;6.950;2023-06-22T01:03:12;21.88;69.88
64858;SHT30;51335;51.148;6.950;2023-06-22T01:03:42;21.89;69.79
64858;SHT30;51335;51.148;6.950;2023-06-22T01:04:12;21.85;69.81
64858;SHT30;51335;51.148;6.950;2023-06-22T01:04:43;21.85;69.93
64858;SHT30;51335;51.148;6.950;2023-06-22T01:05:14;21.81;70.06
64858;SHT30;51335;51.148;6.950;2023-06-22T01:05:46;21.86;70.12
64858;SHT30;51335;51.148;6.950;2023-06-22T01:06:22;21.91;69.85
64858;SHT30;51335;51.148;6.950;2023-06-22T01:07:06;21.95;69.69
64858;SHT30;51335;51.148;6.950;2023-06-22T01:08:35;22.00;69.64
64858;SHT30;51335;51.148;6.950;2023-06-22T01:09:15;21.99;69.74
64858;SHT30;51335;51.148;6.950;2023-06-22T01:10:14;21.98;69.83
64858;SHT30;51335;51.148;6.950;2023-06-22T01:11:01;21.86;70.00
64858;SHT30;51335;51.148;6.950;2023-06-22T01:11:41;21.88;70.15
64858;SHT30;51335;51.148;6.950;2023-06-22T01:12:13;21.95;69.99
64858;SHT30;51335;51.148;6.950;2023-06-22T01:12:53;21.91;69.90
64858;SHT30;51335;51.148;6.950;2023-06-22T01:14:41;21.78;70.26
64858;SHT30;51335;51.148;6.950;2023-06-22T01:16:07;21.78;70.24
64858;SHT30;51335;51.148;6.950;2023-06-22T01:16:23;21.75;70.38
64858;SHT30;51335;51.148;6.950;2023-06-22T01:16:54;21.81;70.43
64858;SHT30;51335;51.148;6.950;2023-06-22T01:17:26;21.86;70.14
64858;SHT30;51335;51.148;6.950;2023-06-22T01:17:57;21.86;70.17
64858;SHT30;51335;51.148;6.950;2023-06-22T01:18:31;21.89;70.11
64858;SHT30;51335;51.148;6.950;2023-06-22T01:19:14;21.83;70.21
64858;SHT30;51335;51.148;6.950;2023-06-22T01:19:51;21.79;70.19
64858;SHT30;51335;51.148;6.950;2023-06-22T01:20:25;21.75;70.39
64858;SHT30;51335;51.148;6.950;2023-06-22T01:20:56;21.71;70.66
64858;SHT30;51335;51.148;6.950;2023-06-22T01:21:28;21.69;70.73
64858;SHT30;51335;51.148;6.950;2023-06-22T01:22:00;21.72;70.83
64858;SHT30;51335;51.148;6.950;2023-06-22T01:22:33;21.75;70.79
64858;SHT30;51335;51.148;6.950;2023-06-22T01:23:29;21.75;70.51
64858;SHT30;51335;51.148;6.950;2023-06-22T01:24:14;21.82;70.67
64858;SHT30;51335;51.148;6.950;2023-06-22T01:25:00;21.83;70.60
64858;SHT30;51335;51.148;6.950;2023-06-22T01:25:47;21.85;70.61
64858;SHT30;51335;51.148;6.950;2023-06-22T01:26:22;21.82;70.55
64858;SHT30;51335;51.148;6.950;2023-06-22T01:28:29;21.66;71.00
64858;SHT30;51335;51.148;6.950;2023-06-22T01:29:00;21.65;71.14
64858;SHT30;51335;51.148;6.950;2023-06-22T01:29:33;21.66;70.99
64858;SHT30;51335;51.148;6.950;2023-06-22T01:30:05;21.63;71.08
64858;SHT30;51335;51.148;6.950;2023-06-22T01:30:36;21.63;71.16
64858;SHT30;51335;51.148;6.950;2023-06-22T01:31:08;21.65;71.21
64858;SHT30;51335;51.148;6.950;2023-06-22T01:31:39;21.59;71.32
64858;SHT30;51335;51.148;6.950;2023-06-22T01:32:10;21.58;71.51
64858;SHT30;51335;51.148;6.950;2023-06-22T01:32:42;21.51;71.79
64858;SHT30;51335;51.148;6.950;2023-06-22T01:33:13;21.51;72.04
64858;SHT30;51335;51.148;6.950;2023-06-22T01:33:48;21.45;72.19
64858;SHT30;51335;51.148;6.950;2023-06-22T01:34:19;21.47;72.22
64858;SHT30;51335;51.148;6.950;2023-06-22T01:34:50;21.54;71.88
64858;SHT30;51335;51.148;6.950;2023-06-22T01:35:21;21.50;71.83
64858;SHT30;51335;51.148;6.950;2023-06-22T01:35:51;21.50;71.77
64858;SHT30;51335;51.148;6.950;2023-06-22T01:36:23;21.45;71.82
64858;SHT30;51335;51.148;6.950;2023-06-22T01:36:54;21.48;71.97
64858;SHT30;51335;51.148;6.950;2023-06-22T01:37:25;21.48;71.92
64858;SHT30;51335;51.148;6.950;2023-06-22T01:37:56;21.48;71.87
64858;SHT30;51335;51.148;6.950;2023-06-22T01:38:28;21.55;71.76
64858;SHT30;51335;51.148;6.950;2023-06-22T01:38:59;21.55;71.71
64858;SHT30;51335;51.148;6.950;2023-06-22T01:39:29;21.51;71.79
64858;SHT30;51335;51.148;6.950;2023-06-22T01:40:00;21.54;71.98
64858;SHT30;51335;51.148;6.950;2023-06-22T01:40:32;21.44;72.19
64858;SHT30;51335;51.148;6.950;2023-06-22T01:41:04;21.42;72.25
64858;SHT30;51335;51.148;6.950;2023-06-22T01:41:36;21.44;72.85
64858;SHT30;51335;51.148;6.950;2023-06-22T01:42:07;21.47;73.06
64858;SHT30;51335;51.148;6.950;2023-06-22T01:42:38;21.54;72.66
64858;SHT30;51335;51.148;6.950;2023-06-22T01:43:09;21.57;71.88
64858;SHT30;51335;51.148;6.950;2023-06-22T01:43:39;21.57;71.87
64858;SHT30;51335;51.148;6.950;2023-06-22T01:44:11;21.57;71.82
64858;SHT30;51335;51.148;6.950;2023-06-22T01:44:42;21.55;72.11
64858;SHT30;51335;51.148;6.950;2023-06-22T01:45:13;21.54;72.11
64858;SHT30;51335;51.148;6.950;2023-06-22T01:45:44;21.52;72.22
64858;SHT30;51335;51.148;6.950;2023-06-22T01:46:15;21.52;72.18
64858;SHT30;51335;51.148;6.950;2023-06-22T01:46:46;21.45;72.29
64858;SHT30;51335;51.148;6.950;2023-06-22T01:47:17;21.37;72.54
64858;SHT30;51335;51.148;6.950;2023-06-22T01:47:47;21.34;72.98
64858;SHT30;51335;51.148;6.950;2023-06-22T01:48:19;21.34;73.26
64858;SHT30;51335;51.148;6.950;2023-06-22T01:48:50;21.27;73.28
64858;SHT30;51335;51.148;6.950;2023-06-22T01:49:20;21.26;73.56
64858;SHT30;51335;51.148;6.950;2023-06-22T01:49:51;21.26;73.57
64858;SHT30;51335;51.148;6.950;2023-06-22T01:50:21;21.21;73.39
64858;SHT30;51335;51.148;6.950;2023-06-22T01:50:53;21.28;73.26
64858;SHT30;51335;51.148;6.950;2023-06-22T01:51:23;21.28;73.22
64858;SHT30;51335;51.148;6.950;2023-06-22T01:51:54;21.27;73.31
64858;SHT30;51335;51.148;6.950;2023-06-22T01:52:24;21.26;73.27
64858;SHT30;51335;51.148;6.950;2023-06-22T01:52:55;21.30;73.08
64858;SHT30;51335;51.148;6.950;2023-06-22T01:53:25;21.30;72.85
64858;SHT30;51335;51.148;6.950;2023-06-22T01:53:55;21.33;72.71
64858;SHT30;51335;51.148;6.950;2023-06-22T01:54:26;21.33;72.78
64858;SHT30;51335;51.148;6.950;2023-06-22T01:54:56;21.31;72.76
64858;SHT30;51335;51.148;6.950;2023-06-22T01:55:26;21.28;72.86
64858;SHT30;51335;51.148;6.950;2023-06-22T01:55:57;21.26;73.00
64858;SHT30;51335;51.148;6.950;2023-06-22T01:56:27;21.27;73.01
64858;SHT30;51335;51.148;6.950;2023-06-22T01:56:57;21.21;73.13
64858;SHT30;51335;51.148;6.950;2023-06-22T01:57:28;21.20;73.14
64858;SHT30;51335;51.148;6.950;2023-06-22T01:57:58;21.13;73.20
64858;SHT30;51335;51.148;6.950;2023-06-22T01:58:29;21.13;73.41
64858;SHT30;51335;51.148;6.950;2023-06-22T01:59:04;21.07;73.47
64858;SHT30;51335;51.148;6.950;2023-06-22T02:00:03;21.17;73.30
64858;SHT30;51335;51.148;6.950;2023-06-22T02:00:37;21.20;73.30
64858;SHT30;51335;51.148;6.950;2023-06-22T02:01:12;21.11;73.39
64858;SHT30;51335;51.148;6.950;2023-06-22T02:02:10;21.08;73.49
64858;SHT30;51335;51.148;6.950;2023-06-22T02:02:59;21.02;73.79
64858;SHT30;51335;51.148;6.950;2023-06-22T02:03:34;20.96;73.93
64858;SHT30;51335;51.148;6.950;2023-06-22T02:04:46;20.92;73.98
64858;SHT30;51335;51.148;6.950;2023-06-22T02:05:18;20.87;74.16
64858;SHT30;51335;51.148;6.950;2023-06-22T02:05:52;20.83;74.25
64858;SHT30;51335;51.148;6.950;2023-06-22T02:06:27;20.82;74.31
64858;SHT30;51335;51.148;6.950;2023-06-22T02:07:00;20.79;74.44
64858;SHT30;51335;51.148;6.950;2023-06-22T02:07:39;20.77;74.35
64858;SHT30;51335;51.148;6.950;2023-06-22T02:08:17;20.76;74.50
64858;SHT30;51335;51.148;6.950;2023-06-22T02:08:50;20.75;74.58
64858;SHT30;51335;51.148;6.950;2023-06-22T02:09:22;20.72;74.71
64858;SHT30;51335;51.148;6.950;2023-06-22T02:09:54;20.72;74.71
64858;SHT30;51335;51.148;6.950;2023-06-22T02:10:26;20.68;74.78
64858;SHT30;51335;51.148;6.950;2023-06-22T02:10:58;20.65;74.87
64858;SHT30;51335;51.148;6.950;2023-06-22T02:11:30;20.63;74.95
64858;SHT30;51335;51.148;6.950;2023-06-22T02:12:03;20.65;74.98
64858;SHT30;51335;51.148;6.950;2023-06-22T02:12:34;20.62;75.00
64858;SHT30;51335;51.148;6.950;2023-06-22T02:13:07;20.63;74.89
64858;SHT30;51335;51.148;6.950;2023-06-22T02:13:38;20.62;74.84
64858;SHT30;51335;51.148;6.950;2023-06-22T02:14:08;20.63;74.85
64858;SHT30;51335;51.148;6.950;2023-06-22T02:14:39;20.62;74.94
64858;SHT30;51335;51.148;6.950;2023-06-22T02:15:10;20.61;75.04
64858;SHT30;51335;51.148;6.950;2023-06-22T02:15:41;20.59;74.97
64858;SHT30;51335;51.148;6.950;2023-06-22T02:16:13;20.61;74.98
64858;SHT30;51335;51.148;6.950;2023-06-22T02:16:44;20.59;75.00
64858;SHT30;51335;51.148;6.950;2023-06-22T02:17:18;20.57;75.07
64858;SHT30;51335;51.148;6.950;2023-06-22T02:17:49;20.57;75.11
64858;SHT30;51335;51.148;6.950;2023-06-22T02:18:19;20.59;75.03
64858;SHT30;51335;51.148;6.950;2023-06-22T02:18:51;20.56;75.00
64858;SHT30;51335;51.148;6.950;2023-06-22T02:19:24;20.57;75.21
64858;SHT30;51335;51.148;6.950;2023-06-22T02:19:55;20.59;75.11
64858;SHT30;51335;51.148;6.950;2023-06-22T02:20:25;20.57;75.09
64858;SHT30;51335;51.148;6.950;2023-06-22T02:20:55;20.56;75.09
64858;SHT30;51335;51.148;6.950;2023-06-22T02:21:25;20.59;75.20
64858;SHT30;51335;51.148;6.950;2023-06-22T02:21:56;20.56;75.20
64858;SHT30;51335;51.148;6.950;2023-06-22T02:22:26;20.59;75.35
64858;SHT30;51335;51.148;6.950;2023-06-22T02:22:56;20.57;75.28
64858;SHT30;51335;51.148;6.950;2023-06-22T02:23:27;20.61;75.54
64858;SHT30;51335;51.148;6.950;2023-06-22T02:23:57;20.63;75.59
64858;SHT30;51335;51.148;6.950;2023-06-22T02:24:27;20.56;75.53
64858;SHT30;51335;51.148;6.950;2023-06-22T02:24:58;20.57;75.43
64858;SHT30;51335;51.148;6.950;2023-06-22T02:25:28;20.57;75.48
64858;SHT30;51335;51.148;6.950;2023-06-22T02:25:58;20.55;75.45
64858;SHT30;51335;51.148;6.950;2023-06-22T02:26:29;20.53;75.42
64858;SHT30;51335;51.148;6.950;2023-06-22T02:27:00;20.55;75.46
64858;SHT30;51335;51.148;6.950;2023-06-22T02:27:30;20.53;75.40
64858;SHT30;51335;51.148;6.950;2023-06-22T02:28:01;20.53;75.57
64858;SHT30;51335;51.148;6.950;2023-06-22T02:28:31;20.56;75.58
64858;SHT30;51335;51.148;6.950;2023-06-22T02:29:01;20.57;75.39
64858;SHT30;51335;51.148;6.950;2023-06-22T02:29:32;20.56;75.42
64858;SHT30;51335;51.148;6.950;2023-06-22T02:30:03;20.55;75.48
64858;SHT30;51335;51.148;6.950;2023-06-22T02:30:33;20.56;75.50
64858;SHT30;51335;51.148;6.950;2023-06-22T02:31:03;20.51;75.47
64858;SHT30;51335;51.148;6.950;2023-06-22T02:31:34;20.53;75.46
64858;SHT30;51335;51.148;6.950;2023-06-22T02:32:04;20.59;75.27
64858;SHT30;51335;51.148;6.950;2023-06-22T02:32:35;20.61;75.27
64858;SHT30;51335;51.148;6.950;2023-06-22T02:33:05;20.61;75.28
64858;SHT30;51335;51.148;6.950;2023-06-22T02:33:35;20.59;75.44
64858;SHT30;51335;51.148;6.950;2023-06-22T02:34:05;20.57;75.36
64858;SHT30;51335;51.148;6.950;2023-06-22T02:34:36;20.56;75.93
64858;SHT30;51335;51.148;6.950;2023-06-22T02:35:06;20.57;75.75
64858;SHT30;51335;51.148;6.950;2023-06-22T02:35:36;20.52;75.95
64858;SHT30;51335;51.148;6.950;2023-06-22T02:36:07;20.53;76.01
64858;SHT30;51335;51.148;6.950;2023-06-22T02:36:37;20.51;76.08
64858;SHT30;51335;51.148;6.950;2023-06-22T02:37:07;20.49;76.06
64858;SHT30;51335;51.148;6.950;2023-06-22T02:37:38;20.51;76.04
64858;SHT30;51335;51.148;6.950;2023-06-22T02:38:09;20.49;76.13
64858;SHT30;51335;51.148;6.950;2023-06-22T02:38:43;20.48;76.41
64858;SHT30;51335;51.148;6.950;2023-06-22T02:39:13;20.48;76.27
64858;SHT30;51335;51.148;6.950;2023-06-22T02:39:44;20.48;76.25
64858;SHT30;51335;51.148;6.950;2023-06-22T02:40:14;20.51;76.20
64858;SHT30;51335;51.148;6.950;2023-06-22T02:40:44;20.48;76.18
64858;SHT30;51335;51.148;6.950;2023-06-22T02:41:15;20.48;76.21
64858;SHT30;51335;51.148;6.950;2023-06-22T02:41:45;20.52;76.22
64858;SHT30;51335;51.148;6.950;2023-06-22T02:42:15;20.51;76.21
64858;SHT30;51335;51.148;6.950;2023-06-22T02:42:46;20.51;76.29
64858;SHT30;51335;51.148;6.950;2023-06-22T02:43:16;20.49;76.32
64858;SHT30;51335;51.148;6.950;2023-06-22T02:43:46;20.49;76.33
64858;SHT30;51335;51.148;6.950;2023-06-22T02:44:17;20.53;76.26
64858;SHT30;51335;51.148;6.950;2023-06-22T02:44:48;20.52;76.31
64858;SHT30;51335;51.148;6.950;2023-06-22T02:45:18;20.49;76.17
64858;SHT30;51335;51.148;6.950;2023-06-22T02:45:48;20.55;76.13
64858;SHT30;51335;51.148;6.950;2023-06-22T02:46:19;20.56;76.41
64858;SHT30;51335;51.148;6.950;2023-06-22T02:46:49;20.55;76.69
64858;SHT30;51335;51.148;6.950;2023-06-22T02:47:19;20.57;76.88
64858;SHT30;51335;51.148;6.950;2023-06-22T02:47:50;20.55;76.99
64858;SHT30;51335;51.148;6.950;2023-06-22T02:48:20;20.52;77.04
64858;SHT30;51335;51.148;6.950;2023-06-22T02:48:50;20.51;76.94
64858;SHT30;51335;51.148;6.950;2023-06-22T02:49:21;20.53;77.00
64858;SHT30;51335;51.148;6.950;2023-06-22T02:49:51;20.56;76.94
64858;SHT30;51335;51.148;6.950;2023-06-22T02:50:21;20.56;76.98
64858;SHT30;51335;51.148;6.950;2023-06-22T02:50:51;20.53;76.88
64858;SHT30;51335;51.148;6.950;2023-06-22T02:51:22;20.53;76.81
64858;SHT30;51335;51.148;6.950;2023-06-22T02:51:52;20.57;76.55
64858;SHT30;51335;51.148;6.950;2023-06-22T02:52:22;20.61;76.56
64858;SHT30;51335;51.148;6.950;2023-06-22T02:52:53;20.62;76.50
64858;SHT30;51335;51.148;6.950;2023-06-22T02:53:23;20.62;76.39
64858;SHT30;51335;51.148;6.950;2023-06-22T02:53:53;20.57;76.35
64858;SHT30;51335;51.148;6.950;2023-06-22T02:54:23;20.61;76.30
64858;SHT30;51335;51.148;6.950;2023-06-22T02:54:54;20.62;76.11
64858;SHT30;51335;51.148;6.950;2023-06-22T02:55:24;20.62;76.04
64858;SHT30;51335;51.148;6.950;2023-06-22T02:55:55;20.63;76.06
64858;SHT30;51335;51.148;6.950;2023-06-22T02:56:25;20.59;76.05
64858;SHT30;51335;51.148;6.950;2023-06-22T02:56:56;20.68;76.09
64858;SHT30;51335;51.148;6.950;2023-06-22T02:57:26;20.69;75.80
64858;SHT30;51335;51.148;6.950;2023-06-22T02:57:56;20.72;75.62
64858;SHT30;51335;51.148;6.950;2023-06-22T02:58:27;20.80;75.38
64858;SHT30;51335;51.148;6.950;2023-06-22T02:58:57;20.79;75.12
64858;SHT30;51335;51.148;6.950;2023-06-22T02:59:27;20.76;75.21
64858;SHT30;51335;51.148;6.950;2023-06-22T02:59:58;20.76;75.34
64858;SHT30;51335;51.148;6.950;2023-06-22T03:00:28;20.73;75.40
64858;SHT30;51335;51.148;6.950;2023-06-22T03:00:58;20.73;75.42
64858;SHT30;51335;51.148;6.950;2023-06-22T03:01:29;20.71;75.42
64858;SHT30;51335;51.148;6.950;2023-06-22T03:01:59;20.68;75.47
64858;SHT30;51335;51.148;6.950;2023-06-22T03:02:30;20.69;75.46
64858;SHT30;51335;51.148;6.950;2023-06-22T03:03:00;20.71;75.36
64858;SHT30;51335;51.148;6.950;2023-06-22T03:03:31;20.68;75.37
64858;SHT30;51335;51.148;6.950;2023-06-22T03:04:01;20.69;75.42
64858;SHT30;51335;51.148;6.950;2023-06-22T03:04:31;20.68;75.31
64858;SHT30;51335;51.148;6.950;2023-06-22T03:05:01;20.69;75.30
64858;SHT30;51335;51.148;6.950;2023-06-22T03:05:32;20.69;75.27
64858;SHT30;51335;51.148;6.950;2023-06-22T03:06:02;20.69;75.30
64858;SHT30;51335;51.148;6.950;2023-06-22T03:06:33;20.68;75.30
64858;SHT30;51335;51.148;6.950;2023-06-22T03:07:03;20.68;75.29
64858;SHT30;51335;51.148;6.950;2023-06-22T03:07:34;20.69;75.21
64858;SHT30;51335;51.148;6.950;2023-06-22T03:08:04;20.69;75.15
64858;SHT30;51335;51.148;6.950;2023-06-22T03:08:34;20.71;75.14
64858;SHT30;51335;51.148;6.950;2023-06-22T03:09:05;20.71;75.00
64858;SHT30;51335;51.148;6.950;2023-06-22T03:09:35;20.71;74.92
64858;SHT30;51335;51.148;6.950;2023-06-22T03:10:06;20.71;74.97
64858;SHT30;51335;51.148;6.950;2023-06-22T03:10:36;20.73;74.99
64858;SHT30;51335;51.148;6.950;2023-06-22T03:11:07;20.75;74.99
64858;SHT30;51335;51.148;6.950;2023-06-22T03:11:37;20.79;74.85
64858;SHT30;51335;51.148;6.950;2023-06-22T03:12:08;20.76;74.70
64858;SHT30;51335;51.148;6.950;2023-06-22T03:12:38;20.77;74.63
64858;SHT30;51335;51.148;6.950;2023-06-22T03:13:09;20.77;74.60
64858;SHT30;51335;51.148;6.950;2023-06-22T03:13:39;20.77;74.65
64858;SHT30;51335;51.148;6.950;2023-06-22T03:14:09;20.79;74.62
64858;SHT30;51335;51.148;6.950;2023-06-22T03:14:40;20.79;74.53
64858;SHT30;51335;51.148;6.950;2023-06-22T03:15:12;20.82;74.47
64858;SHT30;51335;51.148;6.950;2023-06-22T03:15:42;20.80;74.38
64858;SHT30;51335;51.148;6.950;2023-06-22T03:16:12;20.84;74.13
64858;SHT30;51335;51.148;6.950;2023-06-22T03:16:43;20.82;74.11
64858;SHT30;51335;51.148;6.950;2023-06-22T03:17:13;20.82;74.54
64858;SHT30;51335;51.148;6.950;2023-06-22T03:17:44;20.84;74.47
64858;SHT30;51335;51.148;6.950;2023-06-22T03:18:14;20.94;74.19
64858;SHT30;51335;51.148;6.950;2023-06-22T03:18:45;20.99;74.03
64858;SHT30;51335;51.148;6.950;2023-06-22T03:19:15;21.03;73.90
64858;SHT30;51335;51.148;6.950;2023-06-22T03:19:45;21.03;73.80
64858;SHT30;51335;51.148;6.950;2023-06-22T03:20:15;21.06;73.81
64858;SHT30;51335;51.148;6.950;2023-06-22T03:20:45;21.04;73.73
64858;SHT30;51335;51.148;6.950;2023-06-22T03:21:16;21.07;73.68
64858;SHT30;51335;51.148;6.950;2023-06-22T03:21:46;21.07;73.52
64858;SHT30;51335;51.148;6.950;2023-06-22T03:22:16;21.04;73.44
64858;SHT30;51335;51.148;6.950;2023-06-22T03:22:46;21.03;73.49
64858;SHT30;51335;51.148;6.950;2023-06-22T03:23:17;21.03;73.40
64858;SHT30;51335;51.148;6.950;2023-06-22T03:23:47;21.04;73.47
64858;SHT30;51335;51.148;6.950;2023-06-22T03:24:17;21.03;73.57